Аэропорт: Талаги. Архангельск

ICAO: ULAA

METAR:
2019-07-23 18:00:00
ULAA 231800Z VRB01MPS 9999 BKN015 14/14 Q1012 R08/120065 NOSIG RMK QFE758/1011
METAR:
2019-07-23 16:07:00
TAF AMD ULAA 231607Z 2316/2415 04003MPS 6000 BKN011 TEMPO 2316/2318 09003G08MPS 2100 -SHRA BR BKN005 BKN011CB FM231800 12003MPS 4000 -RA BKN007 BKN011 TEMPO 2318/2403 14003G08MPS 0400 -DZ FG BKN003 BKN011CB FM240300 16003MPS 9999 BKN013 TEMPO 2403/2415 18003G08MPS -SHRA BKN011CB